Darwin, MN

9:07 AM CDT on April 19, 2015 (GMT -0500)
RAWS | | Change Station
CLOSE
Current Station
Personal Weather Station
Location: Litchfield, MN
Elevation: 1076 ft
Nearby Weather Stations

Elev 1076 ft 45.07 °N, 94.53 °W | Updated 56 minutes ago

Rain
Rain
53 °F
Feels Like 53 °F
N
10
Wind Variable Wind from SSE
Gusts 20.0 mph

Today
High -- | Low -- °F
--% Chance of Precip.
Yesterday
High -- | Low -- °F
Precip. -- in
6:26 AM 8:08 PM
New Moon, 1% visible
Pressure 29.66 in
Visibility 2.5 miles
Clouds Mostly Cloudy 500 ft
Overcast 900 ft
Dew Point 53 °F
Humidity 99%
Rainfall in
Snow Depth Not available.
UV 1 out of 12
Pollen 2.50 out of 12
Air Quality Not available.
Flu Activity Local Activity
METAR KLJF 191352Z AUTO 00000KT 2 1/2SM -RA BKN005 OVC009 13/13 A2966 RMK AO2

More Conditions Fewer Conditions

Pressure 29.66 in
Visibility 2.5 miles
Clouds Mostly Cloudy 500 ft
Overcast 900 ft
Dew Point 53 °F
Humidity 99%
Rainfall in
Snow Depth Not available.
UV 1 out of 12
Pollen 2.50 out of 12
Air Quality Not available.
Flu Activity Local Activity
METAR KLJF 191352Z AUTO 00000KT 2 1/2SM -RA BKN005 OVC009 13/13 A2966 RMK AO2

More Conditions Fewer Conditions

10-Day Weather Forecast

Almanac

Astronomy

Apr. 19, 2015 Rise Set
Actual Time
Civil Twilight
Nautical Twilight
Astronomical Twilight
Moon
Length of Visible Light
Length of Day
Tomorrow will be .
, % of the Moon is Illuminated

Today's Extremes

State Highs State Lows

Community

WunderPhotos

Upload Photos

1,814,800 photos uploaded!

WunderBlogs® & News

Nearby

Air Quality

  Air Quality AQ Index Pollutant
Not available.

Snow Depth

Station Depth Elevation

Earthquake Activity

City Distance Mag. Time & Date
Minimum magnitude displayed is 2.5.

Coastal Water Temperatures

Place Temperature

Stations

Nearby Weather Stations

Station Location Temp. Windchill Dew Point Humidity Wind Precip. Elev Updated Type